Amboy, California
Current Conditions -  °F | °C
As of 9:56 AM on Thursday 29 Jan 2015 (Local Time) from KNXP Reporting Station
Overcast Overcast  
Wind Chill: 14°   Ceiling: 15000
Heat Index: 14°   Visibility: 10mi
Dew Point:   Wind: 0mph
Humidity: 69%   Direction: NA
Pressure: 30.22"   Gusts: NA
Location:  34.56°N, 115.75°W
Report Text: KNXP 291756Z 00000KT 10SM FEW100 OVC150 14/08 A3022 RMK AO2 SLP214 T01390083 10139 20106 50005
Loading
Personal Weather Stations






























Interactive Weather Map New forecast layout! Learn more

10-Day Weather Forecast

Advertisements
Track Severe Weather on mobile